GMAD/AGA METAR and TAF weather

Enter ICAO airport designator
Station Type Date Time Source
GMAD METAR 2018/07/19 07:30 UTC NOAA

GMAD 190730Z 22004KT 180V260 9999 SCT006 BKN100 19/17 Q1013 NOSIG


Station Type Date Time Source
GMAD Decoded METAR 2018/07/19 07:30 UTC NOAA

Agadir Al Massira, Morocco (GMAD) 30-20N 009-24W 74M
Jul 19, 2018 - 03:30 AM EDT / 2018.07.19 0730 UTC
Wind: from the SW (220 degrees) at 5 MPH (4 KT) (direction variable):0
Visibility: greater than 7 mile(s):0
Sky conditions: mostly cloudy
Temperature: 66 F (19 C)
Dew Point: 62 F (17 C)
Relative Humidity: 88%
Pressure (altimeter): 29.91 in. Hg (1013 hPa)
ob: GMAD 190730Z 22004KT 180V260 9999 SCT006 BKN100 19/17 Q1013 NOSIG
cycle: 7

Station Type Date Time Source
GMAD TAF 2018/07/19 06:42 UTC NOAA

TAF GMAD 190500Z 1906/2012 12004KT CAVOK
TEMPO 1906/1910 2000 BR BKN013


Example: see airport list